sensor_id;sensor_type;location;lat;lon;timestamp;P1;durP1;ratioP1;P2;durP2;ratioP2
42886;SDS011;29032;56.028;92.904;2024-01-15T00:02:24;9.07;;;4.83;;
42886;SDS011;29032;56.028;92.904;2024-01-15T00:07:26;8.43;;;3.40;;
42886;SDS011;29032;56.028;92.904;2024-01-15T00:12:28;6.77;;;3.00;;
42886;SDS011;29032;56.028;92.904;2024-01-15T00:17:32;8.03;;;4.17;;
42886;SDS011;29032;56.028;92.904;2024-01-15T00:22:34;11.47;;;4.37;;
42886;SDS011;29032;56.028;92.904;2024-01-15T00:27:36;10.77;;;4.33;;
42886;SDS011;29032;56.028;92.904;2024-01-15T00:32:39;10.43;;;5.23;;
42886;SDS011;29032;56.028;92.904;2024-01-15T00:37:42;10.73;;;4.70;;
42886;SDS011;29032;56.028;92.904;2024-01-15T00:42:44;7.00;;;3.80;;
42886;SDS011;29032;56.028;92.904;2024-01-15T00:47:47;7.97;;;3.73;;
42886;SDS011;29032;56.028;92.904;2024-01-15T00:52:49;6.47;;;3.73;;
42886;SDS011;29032;56.028;92.904;2024-01-15T00:57:52;8.80;;;3.50;;
42886;SDS011;29032;56.028;92.904;2024-01-15T01:02:55;6.20;;;4.07;;
42886;SDS011;29032;56.028;92.904;2024-01-15T01:07:57;10.73;;;3.97;;
42886;SDS011;29032;56.028;92.904;2024-01-15T01:12:59;9.40;;;4.90;;
42886;SDS011;29032;56.028;92.904;2024-01-15T01:18:03;10.43;;;4.40;;
42886;SDS011;29032;56.028;92.904;2024-01-15T01:23:06;8.37;;;3.73;;
42886;SDS011;29032;56.028;92.904;2024-01-15T01:28:08;9.67;;;4.23;;
42886;SDS011;29032;56.028;92.904;2024-01-15T01:33:11;10.60;;;4.23;;
42886;SDS011;29032;56.028;92.904;2024-01-15T01:38:13;5.67;;;3.10;;
42886;SDS011;29032;56.028;92.904;2024-01-15T01:43:16;6.17;;;4.30;;
42886;SDS011;29032;56.028;92.904;2024-01-15T01:48:19;5.80;;;3.77;;
42886;SDS011;29032;56.028;92.904;2024-01-15T01:53:22;7.20;;;4.20;;
42886;SDS011;29032;56.028;92.904;2024-01-15T01:58:25;7.47;;;4.90;;
42886;SDS011;29032;56.028;92.904;2024-01-15T02:03:29;10.03;;;4.00;;
42886;SDS011;29032;56.028;92.904;2024-01-15T02:08:32;7.67;;;4.30;;
42886;SDS011;29032;56.028;92.904;2024-01-15T02:13:35;13.60;;;4.20;;
42886;SDS011;29032;56.028;92.904;2024-01-15T02:18:42;8.27;;;4.80;;
42886;SDS011;29032;56.028;92.904;2024-01-15T02:23:47;10.13;;;4.47;;
42886;SDS011;29032;56.028;92.904;2024-01-15T02:28:49;10.40;;;5.17;;
42886;SDS011;29032;56.028;92.904;2024-01-15T02:33:52;5.77;;;3.37;;
42886;SDS011;29032;56.028;92.904;2024-01-15T02:38:55;7.47;;;3.70;;
42886;SDS011;29032;56.028;92.904;2024-01-15T02:43:58;5.60;;;3.60;;
42886;SDS011;29032;56.028;92.904;2024-01-15T02:49:00;10.70;;;4.80;;
42886;SDS011;29032;56.028;92.904;2024-01-15T02:54:03;7.20;;;4.13;;
42886;SDS011;29032;56.028;92.904;2024-01-15T02:59:05;8.07;;;4.10;;
42886;SDS011;29032;56.028;92.904;2024-01-15T03:04:07;8.03;;;3.90;;
42886;SDS011;29032;56.028;92.904;2024-01-15T03:09:11;10.13;;;4.77;;
42886;SDS011;29032;56.028;92.904;2024-01-15T03:14:13;8.47;;;3.83;;
42886;SDS011;29032;56.028;92.904;2024-01-15T03:19:15;9.40;;;3.70;;
42886;SDS011;29032;56.028;92.904;2024-01-15T03:24:19;5.63;;;3.53;;
42886;SDS011;29032;56.028;92.904;2024-01-15T03:29:21;7.17;;;3.37;;
42886;SDS011;29032;56.028;92.904;2024-01-15T03:34:23;8.40;;;3.67;;
42886;SDS011;29032;56.028;92.904;2024-01-15T03:39:26;7.20;;;3.50;;
42886;SDS011;29032;56.028;92.904;2024-01-15T03:44:29;7.60;;;3.30;;
42886;SDS011;29032;56.028;92.904;2024-01-15T03:49:31;5.23;;;3.40;;
42886;SDS011;29032;56.028;92.904;2024-01-15T03:54:34;7.07;;;3.20;;
42886;SDS011;29032;56.028;92.904;2024-01-15T03:59:36;5.60;;;3.07;;
42886;SDS011;29032;56.028;92.904;2024-01-15T04:04:40;7.93;;;4.27;;
42886;SDS011;29032;56.028;92.904;2024-01-15T04:09:44;7.70;;;4.37;;
42886;SDS011;29032;56.028;92.904;2024-01-15T04:14:46;6.63;;;3.50;;
42886;SDS011;29032;56.028;92.904;2024-01-15T04:19:48;7.90;;;4.33;;
42886;SDS011;29032;56.028;92.904;2024-01-15T04:24:51;9.47;;;5.37;;
42886;SDS011;29032;56.028;92.904;2024-01-15T04:29:54;6.97;;;3.13;;
42886;SDS011;29032;56.028;92.904;2024-01-15T04:34:56;7.23;;;3.60;;
42886;SDS011;29032;56.028;92.904;2024-01-15T04:40:00;6.60;;;3.30;;
42886;SDS011;29032;56.028;92.904;2024-01-15T04:45:02;5.50;;;2.73;;
42886;SDS011;29032;56.028;92.904;2024-01-15T04:50:05;6.27;;;2.90;;
42886;SDS011;29032;56.028;92.904;2024-01-15T04:55:09;5.47;;;3.17;;
42886;SDS011;29032;56.028;92.904;2024-01-15T05:00:11;17.53;;;7.00;;
42886;SDS011;29032;56.028;92.904;2024-01-15T05:05:14;11.53;;;4.70;;
42886;SDS011;29032;56.028;92.904;2024-01-15T05:10:17;6.50;;;3.53;;
42886;SDS011;29032;56.028;92.904;2024-01-15T05:15:20;7.83;;;4.20;;
42886;SDS011;29032;56.028;92.904;2024-01-15T05:20:22;6.63;;;3.50;;
42886;SDS011;29032;56.028;92.904;2024-01-15T05:25:25;7.07;;;3.73;;
42886;SDS011;29032;56.028;92.904;2024-01-15T05:30:27;7.30;;;3.77;;
42886;SDS011;29032;56.028;92.904;2024-01-15T05:35:30;6.30;;;2.93;;
42886;SDS011;29032;56.028;92.904;2024-01-15T05:40:33;6.93;;;2.97;;
42886;SDS011;29032;56.028;92.904;2024-01-15T05:45:35;11.43;;;3.27;;
42886;SDS011;29032;56.028;92.904;2024-01-15T05:50:39;7.27;;;3.40;;
42886;SDS011;29032;56.028;92.904;2024-01-15T05:55:42;6.37;;;3.53;;
42886;SDS011;29032;56.028;92.904;2024-01-15T06:00:45;5.10;;;3.60;;
42886;SDS011;29032;56.028;92.904;2024-01-15T06:05:47;6.80;;;3.37;;
42886;SDS011;29032;56.028;92.904;2024-01-15T06:10:50;5.03;;;3.30;;
42886;SDS011;29032;56.028;92.904;2024-01-15T06:15:52;9.60;;;3.70;;
42886;SDS011;29032;56.028;92.904;2024-01-15T06:20:54;13.17;;;5.47;;
42886;SDS011;29032;56.028;92.904;2024-01-15T06:25:58;10.53;;;3.90;;
42886;SDS011;29032;56.028;92.904;2024-01-15T06:31:00;12.70;;;4.70;;
42886;SDS011;29032;56.028;92.904;2024-01-15T06:36:02;8.63;;;3.97;;
42886;SDS011;29032;56.028;92.904;2024-01-15T06:41:06;17.57;;;5.93;;
42886;SDS011;29032;56.028;92.904;2024-01-15T06:46:08;8.87;;;4.20;;
42886;SDS011;29032;56.028;92.904;2024-01-15T06:51:10;7.37;;;3.37;;
42886;SDS011;29032;56.028;92.904;2024-01-15T06:56:14;10.57;;;3.57;;
42886;SDS011;29032;56.028;92.904;2024-01-15T07:01:16;7.90;;;3.17;;
42886;SDS011;29032;56.028;92.904;2024-01-15T07:06:18;10.00;;;4.33;;
42886;SDS011;29032;56.028;92.904;2024-01-15T07:11:22;5.77;;;3.33;;
42886;SDS011;29032;56.028;92.904;2024-01-15T07:16:24;5.23;;;3.20;;
42886;SDS011;29032;56.028;92.904;2024-01-15T07:21:26;4.90;;;2.77;;
42886;SDS011;29032;56.028;92.904;2024-01-15T07:26:29;5.40;;;2.60;;
42886;SDS011;29032;56.028;92.904;2024-01-15T07:31:31;8.03;;;3.53;;
42886;SDS011;29032;56.028;92.904;2024-01-15T07:36:34;5.10;;;2.33;;
42886;SDS011;29032;56.028;92.904;2024-01-15T07:41:37;6.43;;;3.33;;
42886;SDS011;29032;56.028;92.904;2024-01-15T07:46:43;8.70;;;4.17;;
42886;SDS011;29032;56.028;92.904;2024-01-15T07:51:46;4.97;;;2.93;;
42886;SDS011;29032;56.028;92.904;2024-01-15T07:56:55;6.50;;;2.87;;
42886;SDS011;29032;56.028;92.904;2024-01-15T08:01:58;7.37;;;3.03;;
42886;SDS011;29032;56.028;92.904;2024-01-15T08:07:01;5.93;;;3.13;;
42886;SDS011;29032;56.028;92.904;2024-01-15T08:12:05;5.43;;;2.90;;
42886;SDS011;29032;56.028;92.904;2024-01-15T08:17:07;6.27;;;3.67;;
42886;SDS011;29032;56.028;92.904;2024-01-15T08:22:09;5.40;;;2.80;;
42886;SDS011;29032;56.028;92.904;2024-01-15T08:27:13;7.57;;;3.10;;
42886;SDS011;29032;56.028;92.904;2024-01-15T08:32:15;7.97;;;3.23;;
42886;SDS011;29032;56.028;92.904;2024-01-15T08:37:17;12.67;;;3.33;;
42886;SDS011;29032;56.028;92.904;2024-01-15T08:42:20;5.23;;;2.63;;
42886;SDS011;29032;56.028;92.904;2024-01-15T08:47:22;7.10;;;3.50;;
42886;SDS011;29032;56.028;92.904;2024-01-15T08:52:25;9.13;;;3.53;;
42886;SDS011;29032;56.028;92.904;2024-01-15T08:57:28;4.70;;;3.23;;
42886;SDS011;29032;56.028;92.904;2024-01-15T09:02:30;8.17;;;3.40;;
42886;SDS011;29032;56.028;92.904;2024-01-15T09:07:32;6.90;;;3.23;;
42886;SDS011;29032;56.028;92.904;2024-01-15T09:12:36;7.47;;;3.13;;
42886;SDS011;29032;56.028;92.904;2024-01-15T09:17:38;7.87;;;3.43;;
42886;SDS011;29032;56.028;92.904;2024-01-15T09:22:40;8.10;;;3.90;;
42886;SDS011;29032;56.028;92.904;2024-01-15T09:27:44;6.53;;;3.27;;
42886;SDS011;29032;56.028;92.904;2024-01-15T09:32:46;10.23;;;4.43;;
42886;SDS011;29032;56.028;92.904;2024-01-15T09:37:48;6.70;;;3.60;;
42886;SDS011;29032;56.028;92.904;2024-01-15T09:42:52;4.83;;;3.00;;
42886;SDS011;29032;56.028;92.904;2024-01-15T09:47:54;9.70;;;3.63;;
42886;SDS011;29032;56.028;92.904;2024-01-15T09:52:56;9.57;;;4.90;;
42886;SDS011;29032;56.028;92.904;2024-01-15T09:58:01;8.83;;;3.93;;
42886;SDS011;29032;56.028;92.904;2024-01-15T10:03:04;11.37;;;4.20;;
42886;SDS011;29032;56.028;92.904;2024-01-15T10:08:07;8.40;;;4.30;;
42886;SDS011;29032;56.028;92.904;2024-01-15T10:13:12;13.50;;;6.33;;
42886;SDS011;29032;56.028;92.904;2024-01-15T10:18:15;11.03;;;4.97;;
42886;SDS011;29032;56.028;92.904;2024-01-15T10:23:17;10.43;;;4.37;;
42886;SDS011;29032;56.028;92.904;2024-01-15T10:28:22;16.93;;;6.40;;
42886;SDS011;29032;56.028;92.904;2024-01-15T10:33:27;12.02;;;5.43;;
42886;SDS011;29032;56.028;92.904;2024-01-15T10:38:29;12.87;;;6.07;;
42886;SDS011;29032;56.028;92.904;2024-01-15T10:43:32;9.63;;;4.70;;
42886;SDS011;29032;56.028;92.904;2024-01-15T10:48:35;8.40;;;3.47;;
42886;SDS011;29032;56.028;92.904;2024-01-15T10:53:37;11.23;;;5.13;;
42886;SDS011;29032;56.028;92.904;2024-01-15T10:58:41;13.63;;;5.90;;
42886;SDS011;29032;56.028;92.904;2024-01-15T11:03:45;10.33;;;5.17;;
42886;SDS011;29032;56.028;92.904;2024-01-15T11:08:48;8.83;;;4.50;;
42886;SDS011;29032;56.028;92.904;2024-01-15T11:13:52;13.27;;;5.23;;
42886;SDS011;29032;56.028;92.904;2024-01-15T11:19:03;14.40;;;5.13;;
42886;SDS011;29032;56.028;92.904;2024-01-15T11:24:07;15.93;;;5.87;;
42886;SDS011;29032;56.028;92.904;2024-01-15T11:29:11;14.60;;;5.93;;
42886;SDS011;29032;56.028;92.904;2024-01-15T11:40:01;12.70;;;5.57;;
42886;SDS011;29032;56.028;92.904;2024-01-15T11:45:05;12.87;;;5.83;;
42886;SDS011;29032;56.028;92.904;2024-01-15T11:50:07;18.37;;;8.23;;
42886;SDS011;29032;56.028;92.904;2024-01-15T11:55:14;13.53;;;5.40;;
42886;SDS011;29032;56.028;92.904;2024-01-15T12:00:22;11.60;;;4.70;;
42886;SDS011;29032;56.028;92.904;2024-01-15T12:05:25;10.00;;;5.33;;
42886;SDS011;29032;56.028;92.904;2024-01-15T12:10:27;20.30;;;7.10;;
42886;SDS011;29032;56.028;92.904;2024-01-15T12:15:31;18.03;;;7.33;;
42886;SDS011;29032;56.028;92.904;2024-01-15T12:20:34;14.23;;;6.43;;
42886;SDS011;29032;56.028;92.904;2024-01-15T12:25:36;13.37;;;6.00;;
42886;SDS011;29032;56.028;92.904;2024-01-15T12:30:40;25.60;;;9.43;;
42886;SDS011;29032;56.028;92.904;2024-01-15T12:35:42;25.23;;;9.10;;
42886;SDS011;29032;56.028;92.904;2024-01-15T12:40:44;22.27;;;8.00;;
42886;SDS011;29032;56.028;92.904;2024-01-15T12:45:48;19.17;;;7.00;;
42886;SDS011;29032;56.028;92.904;2024-01-15T12:50:52;24.03;;;8.97;;
42886;SDS011;29032;56.028;92.904;2024-01-15T12:55:54;17.90;;;6.70;;
42886;SDS011;29032;56.028;92.904;2024-01-15T13:00:58;29.00;;;10.17;;
42886;SDS011;29032;56.028;92.904;2024-01-15T13:06:00;22.47;;;8.27;;
42886;SDS011;29032;56.028;92.904;2024-01-15T13:11:02;18.17;;;8.27;;
42886;SDS011;29032;56.028;92.904;2024-01-15T13:16:06;29.20;;;11.53;;
42886;SDS011;29032;56.028;92.904;2024-01-15T13:21:08;26.30;;;11.97;;
42886;SDS011;29032;56.028;92.904;2024-01-15T13:26:10;24.13;;;11.00;;
42886;SDS011;29032;56.028;92.904;2024-01-15T13:31:13;26.67;;;10.47;;
42886;SDS011;29032;56.028;92.904;2024-01-15T13:36:15;25.23;;;12.40;;
42886;SDS011;29032;56.028;92.904;2024-01-15T13:41:18;31.40;;;11.50;;
42886;SDS011;29032;56.028;92.904;2024-01-15T13:46:23;33.73;;;13.63;;
42886;SDS011;29032;56.028;92.904;2024-01-15T13:51:26;35.43;;;13.17;;
42886;SDS011;29032;56.028;92.904;2024-01-15T13:56:28;28.63;;;12.50;;
42886;SDS011;29032;56.028;92.904;2024-01-15T14:01:32;31.03;;;11.57;;
42886;SDS011;29032;56.028;92.904;2024-01-15T14:06:34;26.47;;;10.60;;
42886;SDS011;29032;56.028;92.904;2024-01-15T14:11:36;32.53;;;11.93;;
42886;SDS011;29032;56.028;92.904;2024-01-15T14:16:40;34.67;;;11.73;;
42886;SDS011;29032;56.028;92.904;2024-01-15T14:21:42;48.30;;;13.33;;
42886;SDS011;29032;56.028;92.904;2024-01-15T14:26:44;40.90;;;13.17;;
42886;SDS011;29032;56.028;92.904;2024-01-15T14:31:47;47.50;;;16.53;;
42886;SDS011;29032;56.028;92.904;2024-01-15T14:36:49;28.63;;;12.70;;
42886;SDS011;29032;56.028;92.904;2024-01-15T14:41:52;26.73;;;11.37;;
42886;SDS011;29032;56.028;92.904;2024-01-15T14:46:55;25.83;;;10.73;;
42886;SDS011;29032;56.028;92.904;2024-01-15T14:51:57;29.83;;;10.83;;
42886;SDS011;29032;56.028;92.904;2024-01-15T14:56:59;26.33;;;10.47;;
42886;SDS011;29032;56.028;92.904;2024-01-15T15:02:03;22.07;;;9.97;;
42886;SDS011;29032;56.028;92.904;2024-01-15T15:07:06;36.23;;;13.10;;
42886;SDS011;29032;56.028;92.904;2024-01-15T15:12:08;26.63;;;10.57;;
42886;SDS011;29032;56.028;92.904;2024-01-15T15:17:12;30.20;;;10.23;;
42886;SDS011;29032;56.028;92.904;2024-01-15T15:22:14;27.10;;;10.60;;
42886;SDS011;29032;56.028;92.904;2024-01-15T15:27:16;22.30;;;9.33;;
42886;SDS011;29032;56.028;92.904;2024-01-15T15:32:20;25.23;;;8.50;;
42886;SDS011;29032;56.028;92.904;2024-01-15T15:37:22;23.93;;;8.87;;
42886;SDS011;29032;56.028;92.904;2024-01-15T15:42:24;30.67;;;10.43;;
42886;SDS011;29032;56.028;92.904;2024-01-15T15:47:28;25.97;;;9.63;;
42886;SDS011;29032;56.028;92.904;2024-01-15T15:52:30;21.80;;;9.37;;
42886;SDS011;29032;56.028;92.904;2024-01-15T15:57:32;26.43;;;11.03;;
42886;SDS011;29032;56.028;92.904;2024-01-15T16:02:35;34.30;;;12.47;;
42886;SDS011;29032;56.028;92.904;2024-01-15T16:07:38;31.33;;;12.07;;
42886;SDS011;29032;56.028;92.904;2024-01-15T16:12:40;54.77;;;18.20;;
42886;SDS011;29032;56.028;92.904;2024-01-15T16:17:44;47.60;;;18.00;;
42886;SDS011;29032;56.028;92.904;2024-01-15T16:22:48;40.67;;;14.37;;
42886;SDS011;29032;56.028;92.904;2024-01-15T16:27:52;25.63;;;10.97;;
42886;SDS011;29032;56.028;92.904;2024-01-15T16:32:58;29.70;;;10.10;;
42886;SDS011;29032;56.028;92.904;2024-01-15T16:38:03;19.43;;;8.27;;
42886;SDS011;29032;56.028;92.904;2024-01-15T16:43:06;14.60;;;6.70;;
42886;SDS011;29032;56.028;92.904;2024-01-15T16:48:09;15.73;;;6.43;;
42886;SDS011;29032;56.028;92.904;2024-01-15T16:53:11;13.20;;;5.90;;
42886;SDS011;29032;56.028;92.904;2024-01-15T16:58:14;13.57;;;5.90;;
42886;SDS011;29032;56.028;92.904;2024-01-15T17:03:17;13.33;;;6.33;;
42886;SDS011;29032;56.028;92.904;2024-01-15T17:08:19;13.20;;;5.97;;
42886;SDS011;29032;56.028;92.904;2024-01-15T17:13:21;9.57;;;4.80;;
42886;SDS011;29032;56.028;92.904;2024-01-15T17:18:26;8.03;;;4.00;;
42886;SDS011;29032;56.028;92.904;2024-01-15T17:23:28;6.60;;;3.30;;
42886;SDS011;29032;56.028;92.904;2024-01-15T17:28:30;6.47;;;3.73;;
42886;SDS011;29032;56.028;92.904;2024-01-15T17:33:34;8.40;;;2.90;;
42886;SDS011;29032;56.028;92.904;2024-01-15T17:38:36;6.00;;;2.83;;
42886;SDS011;29032;56.028;92.904;2024-01-15T17:43:38;5.87;;;2.70;;
42886;SDS011;29032;56.028;92.904;2024-01-15T17:48:42;6.10;;;2.80;;
42886;SDS011;29032;56.028;92.904;2024-01-15T17:53:44;4.40;;;2.70;;
42886;SDS011;29032;56.028;92.904;2024-01-15T17:58:46;4.10;;;2.83;;
42886;SDS011;29032;56.028;92.904;2024-01-15T18:03:50;7.13;;;2.87;;
42886;SDS011;29032;56.028;92.904;2024-01-15T18:08:52;5.27;;;2.93;;
42886;SDS011;29032;56.028;92.904;2024-01-15T18:13:54;12.77;;;4.50;;
42886;SDS011;29032;56.028;92.904;2024-01-15T18:18:58;10.93;;;4.77;;
42886;SDS011;29032;56.028;92.904;2024-01-15T18:24:00;7.77;;;4.13;;
42886;SDS011;29032;56.028;92.904;2024-01-15T18:29:02;8.00;;;3.33;;
42886;SDS011;29032;56.028;92.904;2024-01-15T18:34:06;6.00;;;2.87;;
42886;SDS011;29032;56.028;92.904;2024-01-15T18:39:08;6.83;;;3.10;;
42886;SDS011;29032;56.028;92.904;2024-01-15T18:44:10;5.97;;;2.87;;
42886;SDS011;29032;56.028;92.904;2024-01-15T18:49:16;3.23;;;2.00;;
42886;SDS011;29032;56.028;92.904;2024-01-15T18:54:18;5.73;;;2.37;;
42886;SDS011;29032;56.028;92.904;2024-01-15T18:59:20;3.93;;;2.50;;
42886;SDS011;29032;56.028;92.904;2024-01-15T19:04:24;3.33;;;2.10;;
42886;SDS011;29032;56.028;92.904;2024-01-15T19:09:26;3.83;;;2.10;;
42886;SDS011;29032;56.028;92.904;2024-01-15T19:14:28;4.23;;;2.20;;
42886;SDS011;29032;56.028;92.904;2024-01-15T19:19:32;3.50;;;2.20;;
42886;SDS011;29032;56.028;92.904;2024-01-15T19:24:35;3.40;;;2.10;;
42886;SDS011;29032;56.028;92.904;2024-01-15T19:29:37;4.03;;;2.27;;
42886;SDS011;29032;56.028;92.904;2024-01-15T19:34:41;9.53;;;4.00;;
42886;SDS011;29032;56.028;92.904;2024-01-15T19:39:43;8.53;;;3.43;;
42886;SDS011;29032;56.028;92.904;2024-01-15T19:44:45;6.47;;;2.50;;
42886;SDS011;29032;56.028;92.904;2024-01-15T19:49:49;10.07;;;4.00;;
42886;SDS011;29032;56.028;92.904;2024-01-15T19:54:51;9.60;;;4.00;;
42886;SDS011;29032;56.028;92.904;2024-01-15T19:59:53;7.47;;;3.70;;
42886;SDS011;29032;56.028;92.904;2024-01-15T20:04:57;8.60;;;3.70;;
42886;SDS011;29032;56.028;92.904;2024-01-15T20:09:59;7.03;;;3.97;;
42886;SDS011;29032;56.028;92.904;2024-01-15T20:15:01;7.20;;;3.43;;
42886;SDS011;29032;56.028;92.904;2024-01-15T20:20:06;6.77;;;4.03;;
42886;SDS011;29032;56.028;92.904;2024-01-15T20:25:09;10.03;;;4.47;;
42886;SDS011;29032;56.028;92.904;2024-01-15T20:30:11;7.60;;;3.50;;
42886;SDS011;29032;56.028;92.904;2024-01-15T20:35:15;7.57;;;3.77;;
42886;SDS011;29032;56.028;92.904;2024-01-15T20:40:17;8.77;;;4.47;;
42886;SDS011;29032;56.028;92.904;2024-01-15T20:45:19;7.97;;;3.90;;
42886;SDS011;29032;56.028;92.904;2024-01-15T20:50:23;12.47;;;4.50;;
42886;SDS011;29032;56.028;92.904;2024-01-15T20:55:25;12.67;;;6.20;;
42886;SDS011;29032;56.028;92.904;2024-01-15T21:00:28;11.77;;;5.10;;
42886;SDS011;29032;56.028;92.904;2024-01-15T21:05:31;9.77;;;4.53;;
42886;SDS011;29032;56.028;92.904;2024-01-15T21:10:33;8.47;;;4.40;;
42886;SDS011;29032;56.028;92.904;2024-01-15T21:15:35;9.03;;;4.47;;
42886;SDS011;29032;56.028;92.904;2024-01-15T21:20:39;6.53;;;3.83;;
42886;SDS011;29032;56.028;92.904;2024-01-15T21:25:41;5.53;;;3.07;;
42886;SDS011;29032;56.028;92.904;2024-01-15T21:30:43;4.80;;;2.90;;
42886;SDS011;29032;56.028;92.904;2024-01-15T21:35:47;6.73;;;3.30;;
42886;SDS011;29032;56.028;92.904;2024-01-15T21:40:49;3.63;;;2.40;;
42886;SDS011;29032;56.028;92.904;2024-01-15T21:45:51;4.20;;;2.10;;
42886;SDS011;29032;56.028;92.904;2024-01-15T21:50:54;3.03;;;2.20;;
42886;SDS011;29032;56.028;92.904;2024-01-15T21:55:56;3.77;;;2.03;;
42886;SDS011;29032;56.028;92.904;2024-01-15T22:00:59;2.80;;;1.80;;
42886;SDS011;29032;56.028;92.904;2024-01-15T22:06:02;2.23;;;1.80;;
42886;SDS011;29032;56.028;92.904;2024-01-15T22:11:04;3.00;;;1.90;;
42886;SDS011;29032;56.028;92.904;2024-01-15T22:16:06;5.80;;;2.20;;
42886;SDS011;29032;56.028;92.904;2024-01-15T22:21:10;3.30;;;2.03;;
42886;SDS011;29032;56.028;92.904;2024-01-15T22:26:12;2.93;;;1.90;;
42886;SDS011;29032;56.028;92.904;2024-01-15T22:31:14;3.47;;;1.90;;
42886;SDS011;29032;56.028;92.904;2024-01-15T22:36:18;2.87;;;1.97;;
42886;SDS011;29032;56.028;92.904;2024-01-15T22:41:20;3.17;;;1.77;;
42886;SDS011;29032;56.028;92.904;2024-01-15T22:46:22;10.37;;;2.77;;
42886;SDS011;29032;56.028;92.904;2024-01-15T22:51:26;2.93;;;2.13;;
42886;SDS011;29032;56.028;92.904;2024-01-15T22:56:28;3.37;;;1.90;;
42886;SDS011;29032;56.028;92.904;2024-01-15T23:01:30;2.80;;;1.90;;
42886;SDS011;29032;56.028;92.904;2024-01-15T23:06:34;2.40;;;1.93;;
42886;SDS011;29032;56.028;92.904;2024-01-15T23:11:36;3.13;;;1.93;;
42886;SDS011;29032;56.028;92.904;2024-01-15T23:16:38;2.83;;;1.93;;
42886;SDS011;29032;56.028;92.904;2024-01-15T23:21:42;5.23;;;2.37;;
42886;SDS011;29032;56.028;92.904;2024-01-15T23:26:44;6.87;;;3.10;;
42886;SDS011;29032;56.028;92.904;2024-01-15T23:31:46;7.30;;;3.03;;
42886;SDS011;29032;56.028;92.904;2024-01-15T23:36:50;5.73;;;2.93;;
42886;SDS011;29032;56.028;92.904;2024-01-15T23:41:52;6.50;;;2.87;;
42886;SDS011;29032;56.028;92.904;2024-01-15T23:46:54;3.67;;;2.27;;
42886;SDS011;29032;56.028;92.904;2024-01-15T23:51:57;5.93;;;2.50;;
42886;SDS011;29032;56.028;92.904;2024-01-15T23:57:00;6.20;;;2.30;;
